createdAt,value
2022-11-16T00:00:58.482Z,14.10
2022-11-16T00:03:25.421Z,12.40
2022-11-16T00:05:57.589Z,14.90
2022-11-16T00:08:24.736Z,13.20
2022-11-16T00:10:51.688Z,13.40
2022-11-16T00:13:18.744Z,14.60
2022-11-16T00:15:56.530Z,13.70
2022-11-16T00:18:23.473Z,13.20
2022-11-16T00:20:50.926Z,14.60
2022-11-16T00:23:17.874Z,13.20
2022-11-16T00:25:44.720Z,13.00
2022-11-16T00:28:11.761Z,15.70
2022-11-16T00:30:38.500Z,14.20
2022-11-16T00:33:05.975Z,12.60
2022-11-16T00:35:39.321Z,14.70
2022-11-16T00:38:06.403Z,11.70
2022-11-16T00:40:33.142Z,12.10
2022-11-16T00:42:59.982Z,14.90
2022-11-16T00:45:26.928Z,12.10
2022-11-16T00:47:59.172Z,14.20
2022-11-16T00:50:31.464Z,12.80
2022-11-16T00:52:58.616Z,10.40
2022-11-16T00:55:25.869Z,15.10
2022-11-16T00:57:55.269Z,16.10
2022-11-16T01:00:23.545Z,14.40
2022-11-16T01:02:53.971Z,15.60
2022-11-16T01:05:21.527Z,15.40
2022-11-16T01:07:48.676Z,12.30
2022-11-16T01:10:20.273Z,13.30
2022-11-16T01:12:48.406Z,12.50
2022-11-16T01:15:17.101Z,14.30
2022-11-16T01:17:44.037Z,14.30
2022-11-16T01:20:15.025Z,12.80
2022-11-16T01:22:41.928Z,13.60
2022-11-16T01:25:11.218Z,13.50
2022-11-16T01:27:38.775Z,15.90
2022-11-16T01:30:11.696Z,13.40
2022-11-16T01:32:41.981Z,14.00
2022-11-16T01:35:10.157Z,13.80
2022-11-16T01:37:36.797Z,16.00
2022-11-16T01:40:04.760Z,13.90
2022-11-16T01:42:33.241Z,15.10
2022-11-16T01:45:03.057Z,12.30
2022-11-16T01:47:29.846Z,14.20
2022-11-16T01:50:14.569Z,12.70
2022-11-16T01:52:56.250Z,11.50
2022-11-16T01:55:24.903Z,13.60
2022-11-16T01:58:14.149Z,14.30
2022-11-16T02:00:41.029Z,13.30
2022-11-16T02:03:22.140Z,13.80
2022-11-16T02:06:25.239Z,12.40
2022-11-16T02:09:33.619Z,13.30
2022-11-16T02:12:31.355Z,14.70
2022-11-16T02:15:30.012Z,11.30
2022-11-16T02:18:46.474Z,11.20
2022-11-16T02:21:42.359Z,13.00
2022-11-16T02:24:46.794Z,13.00
2022-11-16T02:27:56.599Z,13.30
2022-11-16T02:30:23.223Z,15.60
2022-11-16T02:32:55.160Z,11.70
2022-11-16T02:35:28.701Z,12.50
2022-11-16T02:37:59.762Z,11.10
2022-11-16T02:40:30.149Z,12.20
2022-11-16T02:43:29.134Z,10.90
2022-11-16T02:45:59.224Z,11.20
2022-11-16T02:48:34.523Z,10.60
2022-11-16T02:51:01.240Z,10.70
2022-11-16T02:57:03.990Z,12.00
2022-11-16T02:59:41.643Z,12.30
2022-11-16T03:02:22.869Z,11.40
2022-11-16T03:04:55.321Z,10.50
2022-11-16T03:07:27.318Z,10.00
2022-11-16T03:09:56.039Z,9.90
2022-11-16T03:12:26.368Z,11.20
2022-11-16T03:14:59.445Z,12.10
2022-11-16T03:17:42.957Z,12.70
2022-11-16T03:20:24.501Z,11.30
2022-11-16T03:22:59.467Z,9.40
2022-11-16T03:28:57.710Z,8.40
2022-11-16T03:31:44.483Z,12.20
2022-11-16T03:34:16.672Z,10.50
2022-11-16T03:36:46.261Z,10.50
2022-11-16T03:39:31.537Z,12.30
2022-11-16T03:42:00.268Z,10.70
2022-11-16T03:44:28.518Z,9.80
2022-11-16T03:46:56.350Z,10.20
2022-11-16T03:49:25.102Z,10.50
2022-11-16T03:51:53.924Z,10.60
2022-11-16T03:54:22.289Z,8.70
2022-11-16T03:56:50.464Z,9.30
2022-11-16T03:59:18.434Z,7.70
2022-11-16T04:01:46.558Z,8.40
2022-11-16T04:04:35.096Z,9.90
2022-11-16T04:07:23.986Z,9.20
2022-11-16T04:10:10.791Z,10.10
2022-11-16T04:13:02.641Z,8.60
2022-11-16T04:15:49.177Z,10.30
2022-11-16T04:18:36.659Z,7.60
2022-11-16T04:21:24.235Z,9.60
2022-11-16T04:24:12.089Z,9.20
2022-11-16T04:27:01.698Z,7.30
2022-11-16T04:29:29.894Z,7.70
2022-11-16T04:32:24.735Z,8.30
2022-11-16T04:35:12.157Z,7.80
2022-11-16T04:37:49.238Z,7.90
2022-11-16T04:40:26.492Z,8.20
2022-11-16T04:42:55.936Z,9.00
2022-11-16T04:45:43.099Z,7.60
2022-11-16T04:48:13.638Z,6.80
2022-11-16T04:50:42.959Z,7.70
2022-11-16T04:53:13.505Z,6.90
2022-11-16T04:55:46.218Z,9.50
2022-11-16T04:58:14.570Z,8.80
2022-11-16T05:00:42.689Z,8.40
2022-11-16T05:03:11.022Z,9.40
2022-11-16T05:05:39.263Z,9.30
2022-11-16T05:08:09.240Z,8.50
2022-11-16T05:10:37.683Z,8.70
2022-11-16T05:13:05.724Z,8.70
2022-11-16T05:15:34.015Z,8.80
2022-11-16T05:18:01.982Z,8.70
2022-11-16T05:20:49.118Z,9.90
2022-11-16T05:23:55.648Z,10.00
2022-11-16T05:26:25.285Z,7.50
2022-11-16T05:28:54.204Z,8.40
2022-11-16T05:31:22.088Z,8.90
2022-11-16T05:33:50.194Z,6.90
2022-11-16T05:36:18.873Z,6.10
2022-11-16T05:38:46.737Z,9.40
2022-11-16T05:41:15.283Z,9.00
2022-11-16T05:43:43.682Z,8.60
2022-11-16T05:46:18.279Z,6.40
2022-11-16T05:48:46.315Z,7.10
2022-11-16T05:51:14.500Z,6.80
2022-11-16T05:53:44.260Z,8.10
2022-11-16T05:56:15.190Z,7.00
2022-11-16T05:58:44.054Z,7.30
2022-11-16T06:01:12.019Z,8.50
2022-11-16T06:03:39.999Z,7.60
2022-11-16T06:06:09.048Z,7.70
2022-11-16T06:08:37.385Z,6.40
2022-11-16T06:11:08.416Z,6.30
2022-11-16T06:13:37.233Z,8.10
2022-11-16T06:16:06.129Z,6.20
2022-11-16T06:18:40.132Z,6.60
2022-11-16T06:21:09.166Z,5.30
2022-11-16T06:23:37.177Z,6.30
2022-11-16T06:26:05.401Z,5.60
2022-11-16T06:28:34.351Z,6.20
2022-11-16T06:31:02.538Z,6.70
2022-11-16T06:33:33.737Z,7.80
2022-11-16T06:36:04.172Z,7.80
2022-11-16T06:38:32.752Z,6.90
2022-11-16T06:41:01.832Z,9.00
2022-11-16T06:43:30.209Z,7.20
2022-11-16T06:45:59.012Z,6.60
2022-11-16T06:48:27.276Z,8.10
2022-11-16T06:50:55.615Z,7.80
2022-11-16T06:53:28.975Z,4.70
2022-11-16T06:56:05.605Z,6.60
2022-11-16T06:58:39.297Z,6.70
2022-11-16T07:01:11.468Z,7.30
2022-11-16T07:03:40.909Z,6.00
2022-11-16T07:06:14.233Z,7.90
2022-11-16T07:08:43.971Z,8.70
2022-11-16T07:11:12.127Z,7.50
2022-11-16T07:13:40.139Z,8.30
2022-11-16T07:16:11.084Z,8.10
2022-11-16T07:18:42.166Z,9.30
2022-11-16T07:21:12.880Z,8.30
2022-11-16T07:23:40.832Z,7.80
2022-11-16T07:26:10.082Z,8.20
2022-11-16T07:28:48.441Z,7.20
2022-11-16T07:31:18.471Z,7.30
2022-11-16T07:33:47.266Z,7.80
2022-11-16T07:36:38.185Z,7.60
2022-11-16T07:39:07.179Z,9.00
2022-11-16T07:41:35.238Z,8.70
2022-11-16T07:44:12.455Z,9.00
2022-11-16T07:46:47.140Z,6.70
2022-11-16T07:49:17.765Z,8.10
2022-11-16T07:51:57.699Z,6.90
2022-11-16T07:54:41.327Z,8.20
2022-11-16T07:57:09.489Z,7.60
2022-11-16T07:59:37.335Z,8.50
2022-11-16T08:02:05.794Z,8.00
2022-11-16T08:04:34.100Z,8.60
2022-11-16T08:07:02.086Z,7.00
2022-11-16T08:09:33.042Z,7.00
2022-11-16T08:12:00.922Z,8.30
2022-11-16T08:14:28.753Z,5.70
2022-11-16T08:16:57.127Z,7.30
2022-11-16T08:19:24.934Z,7.80
2022-11-16T08:21:52.870Z,6.60
2022-11-16T08:24:21.143Z,7.40
2022-11-16T08:26:50.674Z,8.70
2022-11-16T08:29:19.658Z,5.50
2022-11-16T08:31:49.943Z,6.00
2022-11-16T08:34:20.159Z,6.80
2022-11-16T08:36:50.815Z,7.00
2022-11-16T08:39:20.495Z,7.90
2022-11-16T08:41:48.315Z,9.00
2022-11-16T08:44:16.201Z,8.20
2022-11-16T08:46:46.622Z,7.10
2022-11-16T08:49:34.976Z,7.00
2022-11-16T08:52:02.759Z,7.50
2022-11-16T08:54:30.952Z,8.10
2022-11-16T08:56:59.009Z,7.00
2022-11-16T08:59:26.910Z,6.40
2022-11-16T09:01:57.091Z,6.40
2022-11-16T09:04:25.328Z,6.00
2022-11-16T09:06:53.221Z,5.60
2022-11-16T09:09:21.109Z,5.50
2022-11-16T09:11:52.412Z,5.20
2022-11-16T09:14:20.233Z,6.60
2022-11-16T09:16:48.102Z,6.40
2022-11-16T09:19:15.869Z,6.20
2022-11-16T09:21:45.714Z,6.50
2022-11-16T09:24:13.562Z,8.30
2022-11-16T09:26:41.560Z,8.30
2022-11-16T09:29:13.805Z,6.70
2022-11-16T09:35:08.627Z,7.40
2022-11-16T09:37:36.414Z,7.30
2022-11-16T09:40:05.286Z,7.70
2022-11-16T09:43:13.303Z,6.60
2022-11-16T09:46:27.053Z,6.80
2022-11-16T09:48:57.334Z,7.20
2022-11-16T09:51:26.018Z,6.30
2022-11-16T09:54:00.060Z,7.20
2022-11-16T09:56:29.359Z,6.30
2022-11-16T09:59:13.551Z,7.10
2022-11-16T10:02:05.917Z,5.50
2022-11-16T10:04:43.963Z,6.60
2022-11-16T10:07:22.736Z,5.30
2022-11-16T10:09:50.812Z,11.10
2022-11-16T10:12:27.669Z,13.30
2022-11-16T10:15:19.214Z,9.10
2022-11-16T10:17:55.708Z,7.90
2022-11-16T10:21:04.088Z,6.00
2022-11-16T10:23:45.735Z,6.60
2022-11-16T10:26:33.014Z,5.80
2022-11-16T10:29:26.109Z,6.10
2022-11-16T10:32:16.967Z,4.80
2022-11-16T10:34:55.728Z,5.60
2022-11-16T10:37:27.994Z,3.90
2022-11-16T10:39:55.941Z,4.60
2022-11-16T10:42:33.658Z,4.90
2022-11-16T10:45:35.805Z,6.30
2022-11-16T10:48:22.638Z,6.70
2022-11-16T10:50:51.520Z,5.80
2022-11-16T10:53:39.847Z,5.70
2022-11-16T10:56:37.364Z,4.60
2022-11-16T10:59:09.567Z,4.50
2022-11-16T11:01:53.285Z,4.90
2022-11-16T11:04:31.654Z,4.90
2022-11-16T11:07:01.028Z,4.90
2022-11-16T11:09:37.161Z,6.30
2022-11-16T11:12:36.462Z,4.90
2022-11-16T11:15:26.535Z,5.50
2022-11-16T11:18:24.258Z,6.50
2022-11-16T11:20:58.191Z,5.80
2022-11-16T11:23:25.966Z,6.10
2022-11-16T11:25:58.671Z,5.70
2022-11-16T11:28:37.081Z,5.90
2022-11-16T11:31:22.626Z,4.80
2022-11-16T11:33:53.445Z,6.20
2022-11-16T11:36:27.559Z,7.10
2022-11-16T11:39:08.203Z,7.50
2022-11-16T11:41:45.839Z,5.30
2022-11-16T11:44:13.579Z,4.50
2022-11-16T11:49:42.149Z,3.50
2022-11-16T11:52:17.438Z,6.00
2022-11-16T11:54:47.850Z,5.20
2022-11-16T11:57:20.769Z,3.80
2022-11-16T11:59:49.489Z,4.80
2022-11-16T12:02:49.361Z,4.90
2022-11-16T12:05:42.423Z,3.60
2022-11-16T12:08:31.764Z,2.70
2022-11-16T12:11:30.630Z,2.90
2022-11-16T12:14:24.883Z,3.10
2022-11-16T12:17:04.247Z,5.40
2022-11-16T12:20:10.564Z,4.20
2022-11-16T12:22:51.638Z,3.00
2022-11-16T12:25:46.652Z,3.60
2022-11-16T12:29:06.141Z,3.10
2022-11-16T12:31:56.556Z,2.90
2022-11-16T12:34:53.254Z,2.90
2022-11-16T12:37:29.824Z,4.00
2022-11-16T12:40:36.518Z,4.70
2022-11-16T12:43:46.676Z,6.90
2022-11-16T12:46:34.872Z,7.80
2022-11-16T12:49:24.358Z,8.40
2022-11-16T12:52:10.236Z,4.60
2022-11-16T12:55:26.770Z,4.80
2022-11-16T12:58:58.290Z,4.80
2022-11-16T13:01:42.042Z,4.90
2022-11-16T13:04:15.138Z,4.80
2022-11-16T13:06:47.816Z,4.90
2022-11-16T13:09:37.797Z,5.00
2022-11-16T13:12:14.584Z,4.30
2022-11-16T13:14:48.528Z,4.40
2022-11-16T13:17:27.799Z,3.90
2022-11-16T13:20:59.394Z,6.80
2022-11-16T13:23:46.121Z,4.70
2022-11-16T13:26:45.417Z,4.90
2022-11-16T13:29:34.307Z,4.00
2022-11-16T13:32:11.098Z,8.20
2022-11-16T13:34:39.318Z,5.60
2022-11-16T13:37:38.217Z,4.70
2022-11-16T13:40:06.064Z,7.00
2022-11-16T13:42:44.622Z,6.10
2022-11-16T13:45:21.687Z,6.30
2022-11-16T13:47:53.713Z,6.30
2022-11-16T13:50:37.486Z,6.00
2022-11-16T13:56:04.561Z,5.50
2022-11-16T13:58:33.538Z,5.20
2022-11-16T14:01:15.110Z,4.80
2022-11-16T14:03:52.623Z,7.00
2022-11-16T14:06:20.383Z,5.20
2022-11-16T14:08:58.637Z,5.90
2022-11-16T14:11:39.990Z,5.50
2022-11-16T14:14:13.316Z,6.50
2022-11-16T14:16:49.629Z,5.40
2022-11-16T14:19:55.303Z,6.00
2022-11-16T14:22:53.607Z,5.90
2022-11-16T14:25:56.331Z,4.00
2022-11-16T14:28:53.052Z,3.60
2022-11-16T14:31:25.906Z,3.90
2022-11-16T14:33:57.980Z,4.80
2022-11-16T14:36:39.619Z,4.60
2022-11-16T14:39:27.835Z,4.70
2022-11-16T14:42:16.903Z,3.70
2022-11-16T14:44:44.719Z,3.80
2022-11-16T14:50:44.708Z,3.90
2022-11-16T14:53:16.213Z,4.80
2022-11-16T14:55:45.155Z,2.80
2022-11-16T14:58:23.547Z,4.20
2022-11-16T15:01:00.489Z,4.30
2022-11-16T15:04:03.190Z,3.60
2022-11-16T15:06:39.585Z,2.80
2022-11-16T15:09:08.382Z,4.50
2022-11-16T15:11:59.566Z,2.60
2022-11-16T15:14:30.330Z,3.00
2022-11-16T15:16:59.283Z,3.60
2022-11-16T15:19:30.778Z,3.50
2022-11-16T15:22:02.807Z,3.40
2022-11-16T15:24:34.726Z,3.80
2022-11-16T15:27:08.704Z,3.20
2022-11-16T15:29:36.605Z,2.70
2022-11-16T15:32:06.017Z,2.70
2022-11-16T15:34:34.177Z,3.50
2022-11-16T15:37:02.021Z,2.70
2022-11-16T15:39:33.530Z,2.50
2022-11-16T15:42:04.088Z,2.70
2022-11-16T15:44:33.065Z,2.80
2022-11-16T15:47:00.932Z,2.70
2022-11-16T15:49:35.356Z,2.10
2022-11-16T15:52:04.654Z,2.00
2022-11-16T15:54:54.813Z,2.40
2022-11-16T15:57:23.831Z,2.80
2022-11-16T15:59:57.517Z,3.10
2022-11-16T16:02:30.505Z,3.50
2022-11-16T16:04:58.489Z,3.00
2022-11-16T16:07:40.705Z,3.50
2022-11-16T16:10:22.502Z,3.70
2022-11-16T16:12:55.284Z,3.40
2022-11-16T16:15:34.229Z,3.40
2022-11-16T16:18:03.185Z,3.00
2022-11-16T16:20:32.046Z,3.70
2022-11-16T16:23:11.870Z,4.00
2022-11-16T16:25:39.640Z,3.60
2022-11-16T16:28:10.527Z,3.70
2022-11-16T16:30:39.557Z,3.40
2022-11-16T16:33:17.332Z,3.30
2022-11-16T16:35:49.768Z,5.40
2022-11-16T16:38:17.603Z,3.40
2022-11-16T16:40:45.482Z,3.70
2022-11-16T16:43:13.297Z,3.20
2022-11-16T16:45:43.565Z,3.90
2022-11-16T16:48:13.555Z,4.00
2022-11-16T16:50:41.446Z,3.20
2022-11-16T16:53:13.162Z,4.20
2022-11-16T16:55:43.810Z,2.40
2022-11-16T16:58:12.167Z,3.00
2022-11-16T17:00:40.875Z,4.10
2022-11-16T17:03:10.896Z,4.60
2022-11-16T17:05:38.811Z,2.90
2022-11-16T17:08:06.849Z,3.20
2022-11-16T17:10:34.724Z,2.80
2022-11-16T17:13:03.268Z,4.30
2022-11-16T17:15:31.129Z,3.90
2022-11-16T17:17:59.987Z,2.10
2022-11-16T17:20:27.910Z,3.50
2022-11-16T17:22:55.784Z,5.60
2022-11-16T17:25:23.589Z,3.30
2022-11-16T17:27:51.442Z,3.10
2022-11-16T17:30:19.250Z,2.10
2022-11-16T17:32:47.099Z,3.00
2022-11-16T17:35:15.039Z,3.80
2022-11-16T17:37:44.122Z,3.10
2022-11-16T17:40:12.911Z,2.50
2022-11-16T17:42:40.833Z,2.90
2022-11-16T17:45:09.250Z,2.90
2022-11-16T17:47:39.786Z,3.70
2022-11-16T17:50:09.261Z,2.70
2022-11-16T17:52:37.186Z,2.70
2022-11-16T17:55:07.476Z,2.50
2022-11-16T17:57:35.357Z,3.20
2022-11-16T18:00:04.927Z,3.20
2022-11-16T18:02:32.774Z,2.80
2022-11-16T18:05:00.680Z,3.70
2022-11-16T18:07:30.379Z,3.10
2022-11-16T18:09:58.326Z,2.40
2022-11-16T18:12:27.834Z,2.40
2022-11-16T18:15:26.393Z,3.10
2022-11-16T18:17:43.647Z,4.80
2022-11-16T18:20:13.298Z,3.10
2022-11-16T18:22:41.417Z,3.50
2022-11-16T18:25:09.748Z,3.00
2022-11-16T18:27:37.954Z,3.00
2022-11-16T18:30:08.554Z,3.10
2022-11-16T18:32:36.544Z,2.40
2022-11-16T18:35:09.630Z,3.10
2022-11-16T18:37:37.545Z,2.40
2022-11-16T18:40:06.391Z,3.50
2022-11-16T18:42:35.500Z,3.70
2022-11-16T18:45:03.567Z,3.50
2022-11-16T18:47:31.636Z,2.90
2022-11-16T18:49:59.595Z,2.90
2022-11-16T18:52:29.049Z,3.00
2022-11-16T18:54:57.549Z,3.40
2022-11-16T18:57:25.664Z,2.20
2022-11-16T18:59:53.809Z,2.30
2022-11-16T19:02:22.930Z,2.10
2022-11-16T19:04:50.792Z,1.90
2022-11-16T19:07:18.745Z,2.20
2022-11-16T19:09:46.664Z,2.40
2022-11-16T19:12:15.723Z,3.40
2022-11-16T19:14:43.800Z,3.20
2022-11-16T19:17:11.816Z,3.20
2022-11-16T19:19:39.843Z,3.00
2022-11-16T19:22:07.865Z,3.00
2022-11-16T19:24:35.813Z,2.70
2022-11-16T19:27:03.779Z,2.60
2022-11-16T19:29:32.175Z,2.30
2022-11-16T19:32:00.147Z,3.40
2022-11-16T19:34:33.119Z,3.50
2022-11-16T19:37:01.415Z,2.80
2022-11-16T19:39:29.228Z,2.90
2022-11-16T19:41:57.555Z,2.90
2022-11-16T19:44:25.501Z,2.60
2022-11-16T19:46:54.579Z,3.90
2022-11-16T19:49:22.454Z,4.30
2022-11-16T19:51:50.481Z,2.80
2022-11-16T19:54:18.685Z,2.90
2022-11-16T19:56:53.612Z,3.80
2022-11-16T19:59:23.595Z,3.50
2022-11-16T20:01:51.466Z,3.50
2022-11-16T20:04:19.416Z,3.60
2022-11-16T20:06:47.363Z,4.20
2022-11-16T20:09:15.140Z,3.30
2022-11-16T20:11:43.129Z,3.50
2022-11-16T20:14:11.897Z,2.80
2022-11-16T20:16:41.675Z,3.70
2022-11-16T20:19:10.015Z,3.60
2022-11-16T20:21:40.139Z,2.90
2022-11-16T20:24:13.991Z,3.50
2022-11-16T20:26:47.269Z,3.50
2022-11-16T20:29:18.258Z,2.80
2022-11-16T20:31:46.646Z,3.30
2022-11-16T20:34:16.279Z,2.30
2022-11-16T20:36:47.352Z,3.40
2022-11-16T20:39:19.513Z,3.00
2022-11-16T20:41:48.123Z,4.40
2022-11-16T20:44:22.441Z,3.40
2022-11-16T20:46:52.733Z,2.80
2022-11-16T20:49:21.920Z,2.90
2022-11-16T20:51:51.208Z,2.50
2022-11-16T20:54:20.128Z,3.70
2022-11-16T20:56:51.026Z,3.50
2022-11-16T20:59:19.027Z,4.00
2022-11-16T21:01:47.777Z,3.50
2022-11-16T21:04:16.058Z,3.60
2022-11-16T21:06:44.108Z,3.50
2022-11-16T21:09:12.660Z,3.60
2022-11-16T21:11:59.340Z,3.30
2022-11-16T21:14:27.581Z,4.20
2022-11-16T21:16:55.422Z,3.60
2022-11-16T21:19:23.296Z,4.20
2022-11-16T21:21:51.104Z,3.40
2022-11-16T21:24:18.878Z,5.20
2022-11-16T21:26:46.709Z,4.10
2022-11-16T21:29:14.613Z,4.90
2022-11-16T21:31:42.480Z,3.90
2022-11-16T21:34:10.301Z,4.80
2022-11-16T21:36:38.378Z,4.20
2022-11-16T21:39:06.236Z,4.40
2022-11-16T21:41:34.621Z,4.90
2022-11-16T21:44:02.443Z,5.70
2022-11-16T21:46:30.369Z,5.70
2022-11-16T21:48:58.208Z,4.80
2022-11-16T21:51:27.299Z,4.10
2022-11-16T21:53:55.404Z,5.00
2022-11-16T21:56:24.721Z,5.50
2022-11-16T21:58:53.405Z,5.10
2022-11-16T22:01:22.162Z,4.60
2022-11-16T22:04:10.020Z,4.40
2022-11-16T22:06:56.581Z,4.40
2022-11-16T22:09:24.466Z,5.60
2022-11-16T22:11:52.444Z,4.90
2022-11-16T22:14:20.387Z,5.10
2022-11-16T22:16:48.376Z,5.90
2022-11-16T22:19:16.303Z,5.40
2022-11-16T22:21:44.172Z,4.90
2022-11-16T22:24:12.173Z,5.40
2022-11-16T22:26:41.162Z,4.60
2022-11-16T22:29:09.121Z,4.50
2022-11-16T22:31:37.036Z,6.00
2022-11-16T22:34:04.940Z,6.80
2022-11-16T22:36:32.865Z,4.90
2022-11-16T22:39:01.069Z,6.30
2022-11-16T22:41:29.261Z,6.40
2022-11-16T22:43:57.230Z,6.70
2022-11-16T22:46:25.142Z,6.30
2022-11-16T22:48:53.039Z,4.90
2022-11-16T22:51:26.075Z,5.20
2022-11-16T22:53:55.712Z,5.00
2022-11-16T22:56:23.768Z,5.20
2022-11-16T22:58:51.969Z,6.40
2022-11-16T23:01:20.220Z,6.70
2022-11-16T23:03:48.564Z,5.30
2022-11-16T23:06:16.926Z,6.10
2022-11-16T23:08:44.849Z,5.60
2022-11-16T23:11:36.545Z,5.10
2022-11-16T23:14:24.167Z,6.90
2022-11-16T23:16:52.540Z,4.90
2022-11-16T23:19:39.601Z,5.20
2022-11-16T23:22:30.667Z,6.30
2022-11-16T23:25:17.300Z,6.90
2022-11-16T23:28:06.722Z,7.80
2022-11-16T23:30:35.097Z,6.20
2022-11-16T23:33:06.199Z,6.10
2022-11-16T23:35:34.104Z,5.90
2022-11-16T23:38:04.304Z,6.20
2022-11-16T23:40:37.473Z,5.20
2022-11-16T23:43:25.300Z,6.90
2022-11-16T23:45:53.227Z,6.20
2022-11-16T23:48:23.308Z,6.80
2022-11-16T23:50:51.285Z,7.20
2022-11-16T23:53:19.215Z,7.10
2022-11-16T23:55:48.550Z,7.20
2022-11-16T23:58:16.771Z,7.00
